createdAt,value
2024-05-09T00:00:30.407Z,15.38
2024-05-09T00:03:02.462Z,13.43
2024-05-09T00:05:29.227Z,14.40
2024-05-09T00:07:55.910Z,13.52
2024-05-09T00:10:29.155Z,13.65
2024-05-09T00:13:02.171Z,15.35
2024-05-09T00:15:28.741Z,13.80
2024-05-09T00:17:55.553Z,13.63
2024-05-09T00:20:28.384Z,15.63
2024-05-09T00:23:01.944Z,14.65
2024-05-09T00:25:28.529Z,12.95
2024-05-09T00:27:55.097Z,11.65
2024-05-09T00:30:31.023Z,12.70
2024-05-09T00:33:01.544Z,14.75
2024-05-09T00:35:28.375Z,11.48
2024-05-09T00:37:55.129Z,11.98
2024-05-09T00:40:30.853Z,12.75
2024-05-09T00:43:05.165Z,10.35
2024-05-09T00:45:31.703Z,13.10
2024-05-09T00:47:58.481Z,12.25
2024-05-09T00:50:33.403Z,12.27
2024-05-09T00:53:02.627Z,10.77
2024-05-09T00:55:29.258Z,10.70
2024-05-09T00:57:55.845Z,12.38
2024-05-09T01:00:30.717Z,10.80
2024-05-09T01:03:02.692Z,13.57
2024-05-09T01:05:29.456Z,13.77
2024-05-09T01:07:56.071Z,10.48
2024-05-09T01:10:28.176Z,9.15
2024-05-09T01:13:00.459Z,11.13
2024-05-09T01:15:27.065Z,9.73
2024-05-09T01:17:53.836Z,9.32
2024-05-09T01:20:31.592Z,9.02
2024-05-09T01:23:06.367Z,8.50
2024-05-09T01:25:32.968Z,8.30
2024-05-09T01:27:59.515Z,9.82
2024-05-09T01:30:33.024Z,10.05
2024-05-09T01:33:02.194Z,10.38
2024-05-09T01:35:28.953Z,9.98
2024-05-09T01:37:55.654Z,10.57
2024-05-09T01:40:29.110Z,9.98
2024-05-09T01:43:03.168Z,8.73
2024-05-09T01:45:29.736Z,9.23
2024-05-09T01:47:56.499Z,8.15
2024-05-09T01:50:35.667Z,9.75
2024-05-09T01:53:06.098Z,10.13
2024-05-09T01:55:32.734Z,11.15
2024-05-09T01:57:59.315Z,11.02
2024-05-09T02:00:34.206Z,12.70
2024-05-09T02:03:06.191Z,13.07
2024-05-09T02:05:32.983Z,13.73
2024-05-09T02:07:59.711Z,9.20
2024-05-09T02:10:32.194Z,8.73
2024-05-09T02:12:59.817Z,8.07
2024-05-09T02:15:26.387Z,7.35
2024-05-09T02:17:53.330Z,5.25
2024-05-09T02:20:30.033Z,8.25
2024-05-09T02:23:02.299Z,7.75
2024-05-09T02:25:28.896Z,10.13
2024-05-09T02:27:55.465Z,9.25
2024-05-09T02:30:30.025Z,9.85
2024-05-09T02:33:05.020Z,9.45
2024-05-09T02:35:31.860Z,9.82
2024-05-09T02:37:58.532Z,10.18
2024-05-09T02:40:33.329Z,10.10
2024-05-09T02:43:04.017Z,9.07
2024-05-09T02:45:30.552Z,10.30
2024-05-09T02:47:57.438Z,10.77
2024-05-09T02:50:33.085Z,9.00
2024-05-09T02:53:04.344Z,10.32
2024-05-09T02:55:31.120Z,10.23
2024-05-09T02:57:57.750Z,12.45
2024-05-09T03:00:30.119Z,12.32
2024-05-09T03:03:04.540Z,15.35
2024-05-09T03:05:31.486Z,11.77
2024-05-09T03:07:58.156Z,12.23
2024-05-09T03:10:28.624Z,10.23
2024-05-09T03:12:55.855Z,12.65
2024-05-09T03:15:22.541Z,11.32
2024-05-09T03:17:49.369Z,9.27
2024-05-09T03:20:23.303Z,10.65
2024-05-09T03:22:52.675Z,8.60
2024-05-09T03:25:20.619Z,7.43
2024-05-09T03:27:47.283Z,7.75
2024-05-09T03:30:26.006Z,6.30
2024-05-09T03:33:00.562Z,6.80
2024-05-09T03:35:30.221Z,8.20
2024-05-09T03:37:56.850Z,10.63
2024-05-09T03:40:26.604Z,10.25
2024-05-09T03:42:55.723Z,13.43
2024-05-09T03:45:22.316Z,10.90
2024-05-09T03:47:49.127Z,10.13
2024-05-09T03:50:22.700Z,8.38
2024-05-09T03:52:56.117Z,7.82
2024-05-09T03:55:22.691Z,10.60
2024-05-09T03:57:49.262Z,11.13
2024-05-09T04:00:22.121Z,8.02
2024-05-09T04:02:53.308Z,7.60
2024-05-09T04:05:20.004Z,7.72
2024-05-09T04:07:46.774Z,8.70
2024-05-09T04:10:21.174Z,9.88
2024-05-09T04:12:54.453Z,5.53
2024-05-09T04:15:21.137Z,6.63
2024-05-09T04:17:47.957Z,7.90
2024-05-09T04:20:24.285Z,8.15
2024-05-09T04:22:59.920Z,7.38
2024-05-09T04:25:26.527Z,9.50
2024-05-09T04:27:53.072Z,10.07
2024-05-09T04:30:26.310Z,8.32
2024-05-09T04:33:01.475Z,11.40
2024-05-09T04:35:28.277Z,12.63
2024-05-09T04:37:54.988Z,14.63
2024-05-09T04:40:28.355Z,14.52
2024-05-09T04:43:00.056Z,14.55
2024-05-09T04:45:26.591Z,16.52
2024-05-09T04:47:53.334Z,13.65
2024-05-09T04:50:29.336Z,14.38
2024-05-09T04:53:02.210Z,11.75
2024-05-09T04:55:28.772Z,14.18
2024-05-09T04:57:55.339Z,13.65
2024-05-09T05:00:28.911Z,14.05
2024-05-09T05:03:02.279Z,13.93
2024-05-09T05:05:28.986Z,13.18
2024-05-09T05:07:55.578Z,14.13
2024-05-09T05:10:29.519Z,14.05
2024-05-09T05:13:01.916Z,12.07
2024-05-09T05:15:28.465Z,12.40
2024-05-09T05:17:55.230Z,12.27
2024-05-09T05:20:27.870Z,13.02
2024-05-09T05:22:59.761Z,10.48
2024-05-09T05:25:26.370Z,9.93
2024-05-09T05:27:52.936Z,10.52
2024-05-09T05:30:25.068Z,10.82
2024-05-09T05:32:55.704Z,11.45
2024-05-09T05:35:22.520Z,10.77
2024-05-09T05:37:49.248Z,11.95
2024-05-09T05:40:25.284Z,11.57
2024-05-09T05:42:59.423Z,10.55
2024-05-09T05:45:26.005Z,10.00
2024-05-09T05:47:52.763Z,11.63
2024-05-09T05:50:27.379Z,9.98
2024-05-09T05:52:59.627Z,10.35
2024-05-09T05:55:26.271Z,9.82
2024-05-09T05:57:52.840Z,10.23
2024-05-09T06:00:29.184Z,8.95
2024-05-09T06:05:28.865Z,9.63
2024-05-09T06:07:55.742Z,9.43
2024-05-09T06:10:26.328Z,12.57
2024-05-09T06:13:01.422Z,11.15
2024-05-09T06:15:27.987Z,10.85
2024-05-09T06:17:54.858Z,11.45
2024-05-09T06:20:27.815Z,12.80
2024-05-09T06:23:01.679Z,14.50
2024-05-09T06:25:28.280Z,13.43
2024-05-09T06:27:54.860Z,14.43
2024-05-09T06:30:29.866Z,15.95
2024-05-09T06:33:03.789Z,15.90
2024-05-09T06:35:30.763Z,15.75
2024-05-09T06:37:59.771Z,14.48
2024-05-09T06:40:35.902Z,16.52
2024-05-09T06:43:05.280Z,17.88
2024-05-09T06:45:31.865Z,14.45
2024-05-09T06:47:58.529Z,15.73
2024-05-09T06:50:28.488Z,18.30
2024-05-09T06:53:03.162Z,16.65
2024-05-09T06:55:29.776Z,16.98
2024-05-09T06:57:56.350Z,16.52
2024-05-09T07:00:30.499Z,14.77
2024-05-09T07:03:05.962Z,16.42
2024-05-09T07:05:32.840Z,13.43
2024-05-09T07:07:59.481Z,13.93
2024-05-09T07:10:32.786Z,13.45
2024-05-09T07:13:01.813Z,12.95
2024-05-09T07:15:28.407Z,13.55
2024-05-09T07:17:55.275Z,13.55
2024-05-09T07:20:31.395Z,14.18
2024-05-09T07:23:00.907Z,12.48
2024-05-09T07:25:27.496Z,13.70
2024-05-09T07:27:54.089Z,12.15
2024-05-09T07:30:27.518Z,13.18
2024-05-09T07:32:59.891Z,12.50
2024-05-09T07:35:26.842Z,10.52
2024-05-09T07:37:53.703Z,8.95
2024-05-09T07:40:29.008Z,10.73
2024-05-09T07:43:02.090Z,11.32
2024-05-09T07:45:45.059Z,11.68
2024-05-09T07:49:45.324Z,11.48
2024-05-09T07:53:07.651Z,11.20
2024-05-09T07:53:51.949Z,9.60
2024-05-09T07:56:22.622Z,10.25
2024-05-09T07:58:50.580Z,8.90
2024-05-09T08:01:17.499Z,9.98
2024-05-09T08:03:44.345Z,8.38
2024-05-09T08:06:11.010Z,10.35
2024-05-09T08:08:37.653Z,10.52
2024-05-09T08:11:04.341Z,9.95
2024-05-09T08:13:31.138Z,9.48
2024-05-09T08:15:57.701Z,9.05
2024-05-09T08:18:24.409Z,9.05
2024-05-09T08:20:51.081Z,8.65
2024-05-09T08:23:17.665Z,10.23
2024-05-09T08:25:44.218Z,8.63
2024-05-09T08:28:10.968Z,7.55
2024-05-09T08:30:38.314Z,7.60
2024-05-09T08:33:06.413Z,7.50
2024-05-09T08:35:33.751Z,7.97
2024-05-09T08:38:00.535Z,6.50
2024-05-09T08:40:34.220Z,7.53
2024-05-09T08:43:03.041Z,6.50
2024-05-09T08:45:29.933Z,7.40
2024-05-09T08:47:56.761Z,4.72
2024-05-09T08:50:32.156Z,5.45
2024-05-09T08:53:05.059Z,6.63
2024-05-09T08:55:31.694Z,5.70
2024-05-09T08:57:58.283Z,4.68
2024-05-09T09:00:33.832Z,5.40
2024-05-09T09:03:03.769Z,5.38
2024-05-09T09:05:30.521Z,5.90
2024-05-09T09:07:57.212Z,5.97
2024-05-09T09:10:29.843Z,5.68
2024-05-09T09:12:58.776Z,5.30
2024-05-09T09:15:25.384Z,4.63
2024-05-09T09:17:52.080Z,5.18
2024-05-09T09:20:25.955Z,6.65
2024-05-09T09:22:55.931Z,5.53
2024-05-09T09:25:22.480Z,6.13
2024-05-09T09:27:49.065Z,6.60
2024-05-09T09:30:27.830Z,5.72
2024-05-09T09:33:01.949Z,6.63
2024-05-09T09:35:28.538Z,7.60
2024-05-09T09:37:55.078Z,5.78
2024-05-09T09:40:22.428Z,4.50
2024-05-09T09:42:52.152Z,5.00
2024-05-09T09:45:18.827Z,5.72
2024-05-09T09:47:45.466Z,4.60
2024-05-09T09:50:16.832Z,5.22
2024-05-09T09:52:47.066Z,8.27
2024-05-09T09:55:13.875Z,5.63
2024-05-09T09:57:40.506Z,6.28
2024-05-09T10:00:11.649Z,6.25
2024-05-09T10:02:38.503Z,5.10
2024-05-09T10:05:05.367Z,5.20
2024-05-09T10:07:32.026Z,5.43
2024-05-09T10:09:58.632Z,4.78
2024-05-09T10:12:25.256Z,4.85
2024-05-09T10:14:51.822Z,5.00
2024-05-09T10:17:18.418Z,6.25
2024-05-09T10:19:45.081Z,5.80
2024-05-09T10:22:11.714Z,6.20
2024-05-09T10:24:38.483Z,4.88
2024-05-09T10:27:05.144Z,6.57
2024-05-09T10:29:31.692Z,4.85
2024-05-09T10:31:58.254Z,5.45
2024-05-09T10:34:25.180Z,5.20
2024-05-09T10:36:52.020Z,5.82
2024-05-09T10:39:18.613Z,6.93
2024-05-09T10:41:45.173Z,6.30
2024-05-09T10:44:11.724Z,5.25
2024-05-09T10:46:38.292Z,5.30
2024-05-09T10:49:07.256Z,4.72
2024-05-09T10:51:34.980Z,6.10
2024-05-09T10:54:01.540Z,5.53
2024-05-09T10:56:28.114Z,5.18
2024-05-09T10:58:54.714Z,6.35
2024-05-09T11:01:21.487Z,5.63
2024-05-09T11:03:48.388Z,5.30
2024-05-09T11:06:15.006Z,7.00
2024-05-09T11:08:41.550Z,5.72
2024-05-09T11:11:08.847Z,4.63
2024-05-09T11:13:35.901Z,4.40
2024-05-09T11:16:02.708Z,4.32
2024-05-09T11:18:32.197Z,5.18
2024-05-09T11:21:01.921Z,5.88
2024-05-09T11:23:28.535Z,5.68
2024-05-09T11:25:55.090Z,7.28
2024-05-09T11:28:21.709Z,5.75
2024-05-09T11:30:48.340Z,5.75
2024-05-09T11:33:14.992Z,5.13
2024-05-09T11:35:41.568Z,5.05
2024-05-09T11:38:08.131Z,4.95
2024-05-09T11:40:35.060Z,4.85
2024-05-09T11:43:01.862Z,5.13
2024-05-09T11:45:28.554Z,7.03
2024-05-09T11:47:55.356Z,6.55
2024-05-09T11:50:27.329Z,6.35
2024-05-09T11:52:59.069Z,5.53
2024-05-09T11:55:28.045Z,4.80
2024-05-09T11:57:55.205Z,7.18
2024-05-09T12:00:29.546Z,6.65
2024-05-09T12:03:03.101Z,7.45
2024-05-09T12:05:29.808Z,4.68
2024-05-09T12:07:56.435Z,4.18
2024-05-09T12:10:31.979Z,5.32
2024-05-09T12:13:01.006Z,5.20
2024-05-09T12:15:27.683Z,4.35
2024-05-09T12:17:55.861Z,4.13
2024-05-09T12:20:28.877Z,5.95
2024-05-09T12:23:02.450Z,3.83
2024-05-09T12:25:29.061Z,4.47
2024-05-09T12:27:55.675Z,4.90
2024-05-09T12:30:32.696Z,5.50
2024-05-09T12:35:31.057Z,3.17
2024-05-09T12:37:57.725Z,4.78
2024-05-09T12:40:34.137Z,3.65
2024-05-09T12:43:04.017Z,5.45
2024-05-09T12:45:30.750Z,5.05
2024-05-09T12:47:57.476Z,4.40
2024-05-09T12:50:31.074Z,4.18
2024-05-09T12:52:59.626Z,4.50
2024-05-09T12:55:26.975Z,3.72
2024-05-09T12:57:54.616Z,4.82
2024-05-09T13:00:28.139Z,4.57
2024-05-09T13:03:00.311Z,4.40
2024-05-09T13:05:27.378Z,4.03
2024-05-09T13:07:54.107Z,5.65
2024-05-09T13:10:29.010Z,4.95
2024-05-09T13:12:59.109Z,3.63
2024-05-09T13:15:25.849Z,4.47
2024-05-09T13:17:52.444Z,4.10
2024-05-09T13:20:26.328Z,4.40
2024-05-09T13:22:58.640Z,4.55
2024-05-09T13:25:25.183Z,4.65
2024-05-09T13:27:51.855Z,4.60
2024-05-09T13:30:26.331Z,4.63
2024-05-09T13:33:01.118Z,4.13
2024-05-09T13:35:27.808Z,5.28
2024-05-09T13:37:54.421Z,4.22
2024-05-09T13:40:29.922Z,3.78
2024-05-09T13:43:00.705Z,6.00
2024-05-09T13:45:27.326Z,4.40
2024-05-09T13:47:54.032Z,4.70
2024-05-09T13:50:30.527Z,5.07
2024-05-09T13:53:00.718Z,3.70
2024-05-09T13:55:27.301Z,4.00
2024-05-09T13:57:54.078Z,4.10
2024-05-09T14:02:50.273Z,3.83
2024-05-09T14:05:17.152Z,4.88
2024-05-09T14:07:43.996Z,3.60
2024-05-09T14:10:19.776Z,4.05
2024-05-09T14:15:18.762Z,4.13
2024-05-09T14:17:45.418Z,4.38
2024-05-09T14:20:16.415Z,3.38
2024-05-09T14:22:46.008Z,2.95
2024-05-09T14:25:12.821Z,4.10
2024-05-09T14:27:39.615Z,4.38
2024-05-09T14:30:11.766Z,3.67
2024-05-09T14:32:41.631Z,3.70
2024-05-09T14:35:08.322Z,3.60
2024-05-09T14:37:36.426Z,3.30
2024-05-09T14:40:07.041Z,4.00
2024-05-09T14:42:33.994Z,4.43
2024-05-09T14:45:00.597Z,6.93
2024-05-09T14:47:27.319Z,4.60
2024-05-09T14:49:54.129Z,6.15
2024-05-09T14:52:20.859Z,8.43
2024-05-09T14:54:49.070Z,6.47
2024-05-09T14:57:17.754Z,6.22
2024-05-09T14:59:44.307Z,7.47
2024-05-09T15:02:11.098Z,6.80
2024-05-09T15:04:37.838Z,8.07
2024-05-09T15:07:04.978Z,8.48
2024-05-09T15:09:31.738Z,7.57
2024-05-09T15:11:58.280Z,7.25
2024-05-09T15:14:25.041Z,8.90
2024-05-09T15:16:51.604Z,8.35
2024-05-09T15:19:18.412Z,8.65
2024-05-09T15:21:45.181Z,8.05
2024-05-09T15:24:11.753Z,8.32
2024-05-09T15:26:38.317Z,8.70
2024-05-09T15:29:05.134Z,8.43
2024-05-09T15:31:31.741Z,10.85
2024-05-09T15:33:58.478Z,8.43
2024-05-09T15:36:25.110Z,9.27
2024-05-09T15:38:51.674Z,9.13
2024-05-09T15:41:18.215Z,9.20
2024-05-09T15:43:44.768Z,8.98
2024-05-09T15:46:11.395Z,8.18
2024-05-09T15:48:39.228Z,10.75
2024-05-09T15:51:07.709Z,9.43
2024-05-09T15:53:34.338Z,8.80
2024-05-09T15:56:00.925Z,10.10
2024-05-09T15:58:27.566Z,9.60
2024-05-09T16:00:54.303Z,10.75
2024-05-09T16:03:21.000Z,9.50
2024-05-09T16:05:48.197Z,10.00
2024-05-09T16:08:15.258Z,10.27
2024-05-09T16:10:44.142Z,8.25
2024-05-09T16:13:11.941Z,8.75
2024-05-09T16:15:38.756Z,8.85
2024-05-09T16:18:05.476Z,8.27
2024-05-09T16:20:38.910Z,7.75
2024-05-09T16:23:08.607Z,8.48
2024-05-09T16:25:35.706Z,8.85
2024-05-09T16:28:03.372Z,8.50
2024-05-09T16:30:34.961Z,8.35
2024-05-09T16:35:30.288Z,6.93
2024-05-09T16:37:59.389Z,8.73
2024-05-09T16:40:34.518Z,7.25
2024-05-09T16:43:05.842Z,7.22
2024-05-09T16:45:32.696Z,7.43
2024-05-09T16:47:59.991Z,9.10
2024-05-09T16:50:32.205Z,6.93
2024-05-09T16:53:01.057Z,10.15
2024-05-09T16:55:27.893Z,10.00
2024-05-09T16:57:54.723Z,10.23
2024-05-09T17:00:34.856Z,10.18
2024-05-09T17:03:07.618Z,8.70
2024-05-09T17:05:35.522Z,12.45
2024-05-09T17:08:02.654Z,10.10
2024-05-09T17:10:33.127Z,9.35
2024-05-09T17:13:01.891Z,10.18
2024-05-09T17:15:28.672Z,10.63
2024-05-09T17:17:55.422Z,10.55
2024-05-09T17:20:29.559Z,10.43
2024-05-09T17:23:00.505Z,10.25
2024-05-09T17:25:27.147Z,14.48
2024-05-09T17:27:53.836Z,11.35
2024-05-09T17:30:28.777Z,7.97
2024-05-09T17:33:01.323Z,9.32
2024-05-09T17:35:28.207Z,9.70
2024-05-09T17:37:54.755Z,9.55
2024-05-09T17:40:30.698Z,10.50
2024-05-09T17:43:01.188Z,9.85
2024-05-09T17:45:27.975Z,9.95
2024-05-09T17:47:54.851Z,9.85
2024-05-09T17:50:27.645Z,11.25
2024-05-09T17:53:00.773Z,10.77
2024-05-09T17:55:27.596Z,10.63
2024-05-09T17:57:54.406Z,11.43
2024-05-09T18:00:29.264Z,11.13
2024-05-09T18:03:04.046Z,9.95
2024-05-09T18:05:31.051Z,10.43
2024-05-09T18:07:57.861Z,10.90
2024-05-09T18:10:32.530Z,10.13
2024-05-09T18:13:03.275Z,9.90
2024-05-09T18:15:30.023Z,9.25
2024-05-09T18:17:56.760Z,10.45
2024-05-09T18:20:32.435Z,9.85
2024-05-09T18:23:07.123Z,10.63
2024-05-09T18:25:33.798Z,11.02
2024-05-09T18:28:00.407Z,9.68
2024-05-09T18:30:32.491Z,9.40
2024-05-09T18:33:02.063Z,8.63
2024-05-09T18:35:28.868Z,10.65
2024-05-09T18:37:55.464Z,8.75
2024-05-09T18:40:31.185Z,9.07
2024-05-09T18:43:01.849Z,9.52
2024-05-09T18:45:28.473Z,8.73
2024-05-09T18:47:55.099Z,8.63
2024-05-09T18:50:31.683Z,9.98
2024-05-09T18:53:02.409Z,8.07
2024-05-09T18:55:28.986Z,8.98
2024-05-09T18:57:55.625Z,8.80
2024-05-09T19:00:32.962Z,9.48
2024-05-09T19:03:03.423Z,8.85
2024-05-09T19:05:30.579Z,9.57
2024-05-09T19:07:57.338Z,9.27
2024-05-09T19:10:28.681Z,9.23
2024-05-09T19:12:58.828Z,8.70
2024-05-09T19:15:25.434Z,10.25
2024-05-09T19:17:52.121Z,9.30
2024-05-09T19:20:25.429Z,9.05
2024-05-09T19:22:58.399Z,9.52
2024-05-09T19:25:25.003Z,8.35
2024-05-09T19:27:51.636Z,8.10
2024-05-09T19:30:25.674Z,7.88
2024-05-09T19:33:01.258Z,7.20
2024-05-09T19:35:27.894Z,7.15
2024-05-09T19:37:54.475Z,8.73
2024-05-09T19:40:28.877Z,8.20
2024-05-09T19:42:58.676Z,8.60
2024-05-09T19:45:25.379Z,8.90
2024-05-09T19:47:52.233Z,9.95
2024-05-09T19:50:26.714Z,9.75
2024-05-09T19:52:59.534Z,8.52
2024-05-09T19:55:26.176Z,7.85
2024-05-09T19:57:52.883Z,8.65
2024-05-09T20:00:26.050Z,8.40
2024-05-09T20:02:56.179Z,8.07
2024-05-09T20:05:23.323Z,9.10
2024-05-09T20:07:50.206Z,9.38
2024-05-09T20:10:23.510Z,8.32
2024-05-09T20:12:53.262Z,8.27
2024-05-09T20:15:19.876Z,8.70
2024-05-09T20:17:46.561Z,9.13
2024-05-09T20:20:23.540Z,10.40
2024-05-09T20:22:58.389Z,7.10
2024-05-09T20:25:24.953Z,8.20
2024-05-09T20:27:51.597Z,9.48
2024-05-09T20:30:25.431Z,9.38
2024-05-09T20:32:58.186Z,9.60
2024-05-09T20:35:24.961Z,9.25
2024-05-09T20:37:51.572Z,8.88
2024-05-09T20:40:25.595Z,9.55
2024-05-09T20:42:57.957Z,10.90
2024-05-09T20:45:24.534Z,10.82
2024-05-09T20:47:51.161Z,12.32
2024-05-09T20:50:27.847Z,14.23
2024-05-09T20:53:02.500Z,11.02
2024-05-09T20:55:29.182Z,11.57
2024-05-09T20:57:55.798Z,13.40
2024-05-09T21:00:29.812Z,11.75
2024-05-09T21:03:02.353Z,13.10
2024-05-09T21:05:29.186Z,11.48
2024-05-09T21:07:55.868Z,12.88
2024-05-09T21:10:23.003Z,13.18
2024-05-09T21:12:52.900Z,12.48
2024-05-09T21:15:19.464Z,10.93
2024-05-09T21:17:46.239Z,11.15
2024-05-09T21:20:17.362Z,10.95
2024-05-09T21:22:47.300Z,12.75
2024-05-09T21:25:14.057Z,12.90
2024-05-09T21:27:41.006Z,12.88
2024-05-09T21:30:12.929Z,14.55
2024-05-09T21:32:44.986Z,14.48
2024-05-09T21:35:11.623Z,12.93
2024-05-09T21:37:38.208Z,14.07
2024-05-09T21:40:09.300Z,12.88
2024-05-09T21:42:38.064Z,13.25
2024-05-09T21:45:04.998Z,13.18
2024-05-09T21:47:31.732Z,14.52
2024-05-09T21:49:58.348Z,14.30
2024-05-09T21:52:24.919Z,16.13
2024-05-09T21:54:51.488Z,14.38
2024-05-09T21:57:18.074Z,15.70
2024-05-09T21:59:44.622Z,16.95
2024-05-09T22:02:11.513Z,15.07
2024-05-09T22:04:38.411Z,16.95
2024-05-09T22:07:05.126Z,15.20
2024-05-09T22:09:31.819Z,15.15
2024-05-09T22:11:58.511Z,15.32
2024-05-09T22:14:25.100Z,13.43
2024-05-09T22:16:51.680Z,13.43
2024-05-09T22:19:18.284Z,14.65
2024-05-09T22:21:44.909Z,13.35
2024-05-09T22:24:11.453Z,12.07
2024-05-09T22:26:38.015Z,10.27
2024-05-09T22:29:04.805Z,10.82
2024-05-09T22:31:31.408Z,10.70
2024-05-09T22:33:58.195Z,10.20
2024-05-09T22:36:24.846Z,12.65
2024-05-09T22:38:51.401Z,10.93
2024-05-09T22:41:17.961Z,11.55
2024-05-09T22:43:44.549Z,11.23
2024-05-09T22:46:11.155Z,10.77
2024-05-09T22:48:38.198Z,11.32
2024-05-09T22:51:05.101Z,9.60
2024-05-09T22:53:31.690Z,11.10
2024-05-09T22:55:58.261Z,11.63
2024-05-09T22:58:25.001Z,13.23
2024-05-09T23:00:51.847Z,11.82
2024-05-09T23:03:18.651Z,11.38
2024-05-09T23:05:45.325Z,12.02
2024-05-09T23:08:11.870Z,13.43
2024-05-09T23:10:38.698Z,12.90
2024-05-09T23:13:05.608Z,13.18
2024-05-09T23:15:32.588Z,14.07
2024-05-09T23:17:59.394Z,11.93
2024-05-09T23:20:33.504Z,13.95
2024-05-09T23:23:04.771Z,12.90
2024-05-09T23:25:31.339Z,10.20
2024-05-09T23:27:57.945Z,9.88
2024-05-09T23:30:33.627Z,9.60
2024-05-09T23:33:04.980Z,8.77
2024-05-09T23:35:31.689Z,9.20
2024-05-09T23:37:58.310Z,10.30
2024-05-09T23:40:36.369Z,11.75
2024-05-09T23:43:06.131Z,11.98
2024-05-09T23:45:33.080Z,12.98
2024-05-09T23:47:59.858Z,12.60
2024-05-09T23:50:33.545Z,13.68
2024-05-09T23:53:03.180Z,14.30
2024-05-09T23:55:29.811Z,13.93
2024-05-09T23:57:56.467Z,12.18
